sensor_id;sensor_type;location;lat;lon;timestamp;P1;durP1;ratioP1;P2;durP2;ratioP2
65463;SDS011;52063;45.110;9.870;2022-08-21T00:01:53;2.87;;;1.30;;
65463;SDS011;52063;45.110;9.870;2022-08-21T00:04:19;3.90;;;1.37;;
65463;SDS011;52063;45.110;9.870;2022-08-21T00:06:44;2.50;;;1.50;;
65463;SDS011;52063;45.110;9.870;2022-08-21T00:09:10;3.40;;;1.48;;
65463;SDS011;52063;45.110;9.870;2022-08-21T00:11:36;6.33;;;1.60;;
65463;SDS011;52063;45.110;9.870;2022-08-21T00:14:02;1.52;;;1.20;;
65463;SDS011;52063;45.110;9.870;2022-08-21T00:16:28;4.10;;;1.40;;
65463;SDS011;52063;45.110;9.870;2022-08-21T00:18:53;3.00;;;1.33;;
65463;SDS011;52063;45.110;9.870;2022-08-21T00:21:18;2.30;;;1.00;;
65463;SDS011;52063;45.110;9.870;2022-08-21T00:23:44;2.37;;;1.20;;
65463;SDS011;52063;45.110;9.870;2022-08-21T00:26:09;3.38;;;1.10;;
65463;SDS011;52063;45.110;9.870;2022-08-21T00:28:35;1.93;;;0.93;;
65463;SDS011;52063;45.110;9.870;2022-08-21T00:31:00;3.50;;;1.20;;
65463;SDS011;52063;45.110;9.870;2022-08-21T00:33:29;1.58;;;1.13;;
65463;SDS011;52063;45.110;9.870;2022-08-21T00:35:54;3.75;;;1.40;;
65463;SDS011;52063;45.110;9.870;2022-08-21T00:38:20;3.13;;;1.30;;
65463;SDS011;52063;45.110;9.870;2022-08-21T00:40:48;1.70;;;1.20;;
65463;SDS011;52063;45.110;9.870;2022-08-21T00:43:16;2.85;;;1.33;;
65463;SDS011;52063;45.110;9.870;2022-08-21T00:45:41;5.32;;;1.60;;
65463;SDS011;52063;45.110;9.870;2022-08-21T00:48:07;1.80;;;1.20;;
65463;SDS011;52063;45.110;9.870;2022-08-21T00:50:34;1.20;;;1.10;;
65463;SDS011;52063;45.110;9.870;2022-08-21T00:52:59;3.47;;;1.30;;
65463;SDS011;52063;45.110;9.870;2022-08-21T00:55:26;2.13;;;1.45;;
65463;SDS011;52063;45.110;9.870;2022-08-21T00:57:52;1.33;;;1.23;;
65463;SDS011;52063;45.110;9.870;2022-08-21T01:00:24;1.58;;;1.30;;
65463;SDS011;52063;45.110;9.870;2022-08-21T01:02:50;1.30;;;1.20;;
65463;SDS011;52063;45.110;9.870;2022-08-21T01:05:15;3.10;;;1.50;;
65463;SDS011;52063;45.110;9.870;2022-08-21T01:07:41;3.17;;;1.48;;
65463;SDS011;52063;45.110;9.870;2022-08-21T01:10:07;2.00;;;0.93;;
65463;SDS011;52063;45.110;9.870;2022-08-21T01:12:33;2.25;;;1.33;;
65463;SDS011;52063;45.110;9.870;2022-08-21T01:14:58;1.80;;;1.30;;
65463;SDS011;52063;45.110;9.870;2022-08-21T01:17:24;2.07;;;1.43;;
65463;SDS011;52063;45.110;9.870;2022-08-21T01:19:49;1.60;;;1.07;;
65463;SDS011;52063;45.110;9.870;2022-08-21T01:22:15;1.83;;;1.10;;
65463;SDS011;52063;45.110;9.870;2022-08-21T01:24:40;3.05;;;1.13;;
65463;SDS011;52063;45.110;9.870;2022-08-21T01:27:06;3.07;;;1.13;;
65463;SDS011;52063;45.110;9.870;2022-08-21T01:32:02;1.23;;;0.95;;
65463;SDS011;52063;45.110;9.870;2022-08-21T01:34:28;2.13;;;1.13;;
65463;SDS011;52063;45.110;9.870;2022-08-21T01:36:53;4.87;;;1.10;;
65463;SDS011;52063;45.110;9.870;2022-08-21T01:39:19;3.13;;;1.37;;
65463;SDS011;52063;45.110;9.870;2022-08-21T01:41:44;3.47;;;1.08;;
65463;SDS011;52063;45.110;9.870;2022-08-21T01:44:10;3.97;;;1.00;;
65463;SDS011;52063;45.110;9.870;2022-08-21T01:46:35;5.47;;;1.17;;
65463;SDS011;52063;45.110;9.870;2022-08-21T01:49:00;2.07;;;0.90;;
65463;SDS011;52063;45.110;9.870;2022-08-21T01:51:26;3.65;;;1.10;;
65463;SDS011;52063;45.110;9.870;2022-08-21T01:53:51;1.10;;;0.80;;
65463;SDS011;52063;45.110;9.870;2022-08-21T01:56:16;2.20;;;1.07;;
65463;SDS011;52063;45.110;9.870;2022-08-21T01:58:43;2.97;;;0.90;;
65463;SDS011;52063;45.110;9.870;2022-08-21T02:01:09;1.48;;;1.05;;
65463;SDS011;52063;45.110;9.870;2022-08-21T02:03:35;3.70;;;1.38;;
65463;SDS011;52063;45.110;9.870;2022-08-21T02:06:00;2.90;;;0.90;;
65463;SDS011;52063;45.110;9.870;2022-08-21T02:08:27;2.67;;;0.90;;
65463;SDS011;52063;45.110;9.870;2022-08-21T02:10:52;3.38;;;0.90;;
65463;SDS011;52063;45.110;9.870;2022-08-21T02:13:18;1.13;;;0.90;;
65463;SDS011;52063;45.110;9.870;2022-08-21T02:15:43;1.48;;;0.95;;
65463;SDS011;52063;45.110;9.870;2022-08-21T02:18:09;1.83;;;1.10;;
65463;SDS011;52063;45.110;9.870;2022-08-21T02:20:36;3.57;;;1.30;;
65463;SDS011;52063;45.110;9.870;2022-08-21T02:23:02;2.60;;;1.15;;
65463;SDS011;52063;45.110;9.870;2022-08-21T02:25:28;1.48;;;1.00;;
65463;SDS011;52063;45.110;9.870;2022-08-21T02:27:53;3.07;;;1.20;;
65463;SDS011;52063;45.110;9.870;2022-08-21T02:30:32;1.58;;;1.15;;
65463;SDS011;52063;45.110;9.870;2022-08-21T02:32:58;2.00;;;1.10;;
65463;SDS011;52063;45.110;9.870;2022-08-21T02:35:24;2.17;;;0.90;;
65463;SDS011;52063;45.110;9.870;2022-08-21T02:37:54;2.40;;;0.88;;
65463;SDS011;52063;45.110;9.870;2022-08-21T02:40:21;1.05;;;0.80;;
65463;SDS011;52063;45.110;9.870;2022-08-21T02:42:47;1.43;;;0.97;;
65463;SDS011;52063;45.110;9.870;2022-08-21T02:45:12;1.70;;;0.98;;
65463;SDS011;52063;45.110;9.870;2022-08-21T02:47:38;2.60;;;0.90;;
65463;SDS011;52063;45.110;9.870;2022-08-21T02:50:05;2.65;;;1.10;;
65463;SDS011;52063;45.110;9.870;2022-08-21T02:52:31;2.43;;;1.23;;
65463;SDS011;52063;45.110;9.870;2022-08-21T02:54:56;2.33;;;1.20;;
65463;SDS011;52063;45.110;9.870;2022-08-21T02:57:22;2.17;;;1.33;;
65463;SDS011;52063;45.110;9.870;2022-08-21T02:59:47;2.33;;;1.20;;
65463;SDS011;52063;45.110;9.870;2022-08-21T03:02:12;1.67;;;1.47;;
65463;SDS011;52063;45.110;9.870;2022-08-21T03:04:38;1.83;;;1.50;;
65463;SDS011;52063;45.110;9.870;2022-08-21T03:07:03;3.10;;;1.30;;
65463;SDS011;52063;45.110;9.870;2022-08-21T03:09:28;2.03;;;1.10;;
65463;SDS011;52063;45.110;9.870;2022-08-21T03:11:54;2.07;;;1.23;;
65463;SDS011;52063;45.110;9.870;2022-08-21T03:14:19;1.83;;;1.10;;
65463;SDS011;52063;45.110;9.870;2022-08-21T03:16:45;1.73;;;1.00;;
65463;SDS011;52063;45.110;9.870;2022-08-21T03:19:10;1.40;;;1.30;;
65463;SDS011;52063;45.110;9.870;2022-08-21T03:21:36;6.83;;;1.30;;
65463;SDS011;52063;45.110;9.870;2022-08-21T03:24:01;2.87;;;1.13;;
65463;SDS011;52063;45.110;9.870;2022-08-21T03:26:27;2.00;;;1.20;;
65463;SDS011;52063;45.110;9.870;2022-08-21T03:28:52;1.03;;;0.93;;
65463;SDS011;52063;45.110;9.870;2022-08-21T03:31:18;2.20;;;1.13;;
65463;SDS011;52063;45.110;9.870;2022-08-21T03:33:43;1.67;;;1.10;;
65463;SDS011;52063;45.110;9.870;2022-08-21T03:36:09;3.00;;;1.00;;
65463;SDS011;52063;45.110;9.870;2022-08-21T03:38:35;0.90;;;0.70;;
65463;SDS011;52063;45.110;9.870;2022-08-21T03:41:01;1.42;;;1.20;;
65463;SDS011;52063;45.110;9.870;2022-08-21T03:43:27;1.17;;;1.00;;
65463;SDS011;52063;45.110;9.870;2022-08-21T03:45:53;1.77;;;1.30;;
65463;SDS011;52063;45.110;9.870;2022-08-21T03:48:18;3.40;;;1.23;;
65463;SDS011;52063;45.110;9.870;2022-08-21T03:50:44;2.20;;;1.20;;
65463;SDS011;52063;45.110;9.870;2022-08-21T03:53:12;1.42;;;1.05;;
65463;SDS011;52063;45.110;9.870;2022-08-21T03:55:37;1.42;;;1.10;;
65463;SDS011;52063;45.110;9.870;2022-08-21T03:58:03;3.83;;;1.50;;
65463;SDS011;52063;45.110;9.870;2022-08-21T04:00:29;3.03;;;1.20;;
65463;SDS011;52063;45.110;9.870;2022-08-21T04:02:54;2.20;;;1.20;;
65463;SDS011;52063;45.110;9.870;2022-08-21T04:05:20;2.27;;;1.40;;
65463;SDS011;52063;45.110;9.870;2022-08-21T04:08:00;3.47;;;1.50;;
65463;SDS011;52063;45.110;9.870;2022-08-21T04:10:26;2.20;;;1.50;;
65463;SDS011;52063;45.110;9.870;2022-08-21T04:12:52;2.10;;;1.30;;
65463;SDS011;52063;45.110;9.870;2022-08-21T04:15:18;3.13;;;1.50;;
65463;SDS011;52063;45.110;9.870;2022-08-21T04:17:43;1.23;;;1.13;;
65463;SDS011;52063;45.110;9.870;2022-08-21T04:20:09;1.50;;;1.30;;
65463;SDS011;52063;45.110;9.870;2022-08-21T04:22:34;5.13;;;1.10;;
65463;SDS011;52063;45.110;9.870;2022-08-21T04:25:00;1.83;;;1.20;;
65463;SDS011;52063;45.110;9.870;2022-08-21T04:27:25;1.30;;;1.00;;
65463;SDS011;52063;45.110;9.870;2022-08-21T04:29:50;3.20;;;0.87;;
65463;SDS011;52063;45.110;9.870;2022-08-21T04:32:25;2.33;;;1.10;;
65463;SDS011;52063;45.110;9.870;2022-08-21T04:34:50;2.13;;;1.10;;
65463;SDS011;52063;45.110;9.870;2022-08-21T04:37:16;2.20;;;1.35;;
65463;SDS011;52063;45.110;9.870;2022-08-21T04:39:41;1.77;;;1.20;;
65463;SDS011;52063;45.110;9.870;2022-08-21T04:42:07;1.35;;;1.23;;
65463;SDS011;52063;45.110;9.870;2022-08-21T04:44:34;1.37;;;1.10;;
65463;SDS011;52063;45.110;9.870;2022-08-21T04:46:59;1.83;;;1.20;;
65463;SDS011;52063;45.110;9.870;2022-08-21T04:49:24;3.10;;;1.10;;
65463;SDS011;52063;45.110;9.870;2022-08-21T04:51:50;2.50;;;1.20;;
65463;SDS011;52063;45.110;9.870;2022-08-21T04:54:19;2.17;;;1.20;;
65463;SDS011;52063;45.110;9.870;2022-08-21T04:56:47;1.80;;;1.30;;
65463;SDS011;52063;45.110;9.870;2022-08-21T04:59:19;1.70;;;1.40;;
65463;SDS011;52063;45.110;9.870;2022-08-21T05:01:45;2.30;;;1.50;;
65463;SDS011;52063;45.110;9.870;2022-08-21T05:04:12;1.83;;;1.52;;
65463;SDS011;52063;45.110;9.870;2022-08-21T05:06:38;2.95;;;1.58;;
65463;SDS011;52063;45.110;9.870;2022-08-21T05:09:06;3.00;;;1.60;;
65463;SDS011;52063;45.110;9.870;2022-08-21T05:11:31;3.58;;;1.50;;
65463;SDS011;52063;45.110;9.870;2022-08-21T05:13:57;7.00;;;1.60;;
65463;SDS011;52063;45.110;9.870;2022-08-21T05:16:22;5.07;;;1.65;;
65463;SDS011;52063;45.110;9.870;2022-08-21T05:18:48;5.93;;;1.70;;
65463;SDS011;52063;45.110;9.870;2022-08-21T05:21:13;5.70;;;1.40;;
65463;SDS011;52063;45.110;9.870;2022-08-21T05:23:38;1.87;;;1.20;;
65463;SDS011;52063;45.110;9.870;2022-08-21T05:26:04;3.90;;;1.77;;
65463;SDS011;52063;45.110;9.870;2022-08-21T05:28:29;3.80;;;1.38;;
65463;SDS011;52063;45.110;9.870;2022-08-21T05:30:55;3.80;;;1.20;;
65463;SDS011;52063;45.110;9.870;2022-08-21T05:33:20;1.88;;;1.40;;
65463;SDS011;52063;45.110;9.870;2022-08-21T05:35:48;3.40;;;1.50;;
65463;SDS011;52063;45.110;9.870;2022-08-21T05:38:14;3.83;;;1.70;;
65463;SDS011;52063;45.110;9.870;2022-08-21T05:40:39;2.47;;;1.60;;
65463;SDS011;52063;45.110;9.870;2022-08-21T05:43:04;2.10;;;1.70;;
65463;SDS011;52063;45.110;9.870;2022-08-21T05:45:32;4.63;;;1.75;;
65463;SDS011;52063;45.110;9.870;2022-08-21T05:47:57;2.40;;;1.80;;
65463;SDS011;52063;45.110;9.870;2022-08-21T05:50:30;2.30;;;1.95;;
65463;SDS011;52063;45.110;9.870;2022-08-21T05:52:56;2.08;;;1.73;;
65463;SDS011;52063;45.110;9.870;2022-08-21T05:55:21;3.60;;;1.70;;
65463;SDS011;52063;45.110;9.870;2022-08-21T05:57:46;11.17;;;2.10;;
65463;SDS011;52063;45.110;9.870;2022-08-21T06:00:12;6.97;;;2.03;;
65463;SDS011;52063;45.110;9.870;2022-08-21T06:02:40;4.23;;;1.97;;
65463;SDS011;52063;45.110;9.870;2022-08-21T06:05:05;6.53;;;2.00;;
65463;SDS011;52063;45.110;9.870;2022-08-21T06:07:31;2.37;;;1.93;;
65463;SDS011;52063;45.110;9.870;2022-08-21T06:09:56;4.37;;;2.00;;
65463;SDS011;52063;45.110;9.870;2022-08-21T06:12:22;4.20;;;1.87;;
65463;SDS011;52063;45.110;9.870;2022-08-21T06:14:47;3.73;;;2.00;;
65463;SDS011;52063;45.110;9.870;2022-08-21T06:17:13;3.73;;;2.10;;
65463;SDS011;52063;45.110;9.870;2022-08-21T06:19:40;4.75;;;3.05;;
65463;SDS011;52063;45.110;9.870;2022-08-21T06:22:05;3.60;;;3.03;;
65463;SDS011;52063;45.110;9.870;2022-08-21T06:24:31;3.40;;;3.10;;
65463;SDS011;52063;45.110;9.870;2022-08-21T06:26:56;4.88;;;3.17;;
65463;SDS011;52063;45.110;9.870;2022-08-21T06:29:22;5.00;;;3.63;;
65463;SDS011;52063;45.110;9.870;2022-08-21T06:31:48;6.32;;;3.28;;
65463;SDS011;52063;45.110;9.870;2022-08-21T06:34:13;6.10;;;3.50;;
65463;SDS011;52063;45.110;9.870;2022-08-21T06:36:39;3.95;;;3.60;;
65463;SDS011;52063;45.110;9.870;2022-08-21T06:39:04;7.17;;;3.93;;
65463;SDS011;52063;45.110;9.870;2022-08-21T06:41:30;4.60;;;3.67;;
65463;SDS011;52063;45.110;9.870;2022-08-21T06:43:56;5.78;;;3.53;;
65463;SDS011;52063;45.110;9.870;2022-08-21T06:46:22;7.47;;;3.17;;
65463;SDS011;52063;45.110;9.870;2022-08-21T06:48:47;4.30;;;3.63;;
65463;SDS011;52063;45.110;9.870;2022-08-21T06:51:13;3.80;;;3.37;;
65463;SDS011;52063;45.110;9.870;2022-08-21T06:53:38;5.60;;;3.87;;
65463;SDS011;52063;45.110;9.870;2022-08-21T06:56:04;5.70;;;3.70;;
65463;SDS011;52063;45.110;9.870;2022-08-21T06:58:29;5.07;;;3.37;;
65463;SDS011;52063;45.110;9.870;2022-08-21T07:00:55;6.10;;;3.35;;
65463;SDS011;52063;45.110;9.870;2022-08-21T07:03:25;5.97;;;3.37;;
65463;SDS011;52063;45.110;9.870;2022-08-21T07:05:52;4.60;;;3.20;;
65463;SDS011;52063;45.110;9.870;2022-08-21T07:08:17;4.80;;;3.17;;
65463;SDS011;52063;45.110;9.870;2022-08-21T07:10:43;5.17;;;2.50;;
65463;SDS011;52063;45.110;9.870;2022-08-21T07:13:09;4.53;;;3.00;;
65463;SDS011;52063;45.110;9.870;2022-08-21T07:15:34;3.70;;;2.70;;
65463;SDS011;52063;45.110;9.870;2022-08-21T07:17:59;4.47;;;3.00;;
65463;SDS011;52063;45.110;9.870;2022-08-21T07:20:26;4.07;;;2.80;;
65463;SDS011;52063;45.110;9.870;2022-08-21T07:22:51;2.90;;;2.47;;
65463;SDS011;52063;45.110;9.870;2022-08-21T07:25:17;7.43;;;2.80;;
65463;SDS011;52063;45.110;9.870;2022-08-21T07:27:42;3.90;;;2.50;;
65463;SDS011;52063;45.110;9.870;2022-08-21T07:30:08;2.87;;;2.30;;
65463;SDS011;52063;45.110;9.870;2022-08-21T07:32:33;4.40;;;2.40;;
65463;SDS011;52063;45.110;9.870;2022-08-21T07:34:58;4.73;;;2.40;;
65463;SDS011;52063;45.110;9.870;2022-08-21T07:37:24;2.77;;;2.30;;
65463;SDS011;52063;45.110;9.870;2022-08-21T07:39:50;3.60;;;1.80;;
65463;SDS011;52063;45.110;9.870;2022-08-21T07:42:16;3.00;;;1.90;;
65463;SDS011;52063;45.110;9.870;2022-08-21T07:44:42;4.45;;;1.90;;
65463;SDS011;52063;45.110;9.870;2022-08-21T07:47:08;3.50;;;1.60;;
65463;SDS011;52063;45.110;9.870;2022-08-21T07:49:33;3.80;;;1.70;;
65463;SDS011;52063;45.110;9.870;2022-08-21T07:51:58;1.50;;;1.40;;
65463;SDS011;52063;45.110;9.870;2022-08-21T07:54:24;3.03;;;1.48;;
65463;SDS011;52063;45.110;9.870;2022-08-21T07:56:50;2.90;;;1.50;;
65463;SDS011;52063;45.110;9.870;2022-08-21T07:59:15;1.97;;;1.50;;
65463;SDS011;52063;45.110;9.870;2022-08-21T08:01:40;2.27;;;1.43;;
65463;SDS011;52063;45.110;9.870;2022-08-21T08:04:06;1.50;;;1.40;;
65463;SDS011;52063;45.110;9.870;2022-08-21T08:06:31;4.43;;;1.57;;
65463;SDS011;52063;45.110;9.870;2022-08-21T08:08:57;2.40;;;1.23;;
65463;SDS011;52063;45.110;9.870;2022-08-21T08:11:22;3.23;;;1.47;;
65463;SDS011;52063;45.110;9.870;2022-08-21T08:13:48;2.17;;;1.40;;
65463;SDS011;52063;45.110;9.870;2022-08-21T08:16:14;1.67;;;1.33;;
65463;SDS011;52063;45.110;9.870;2022-08-21T08:18:39;1.70;;;1.30;;
65463;SDS011;52063;45.110;9.870;2022-08-21T08:21:06;1.33;;;1.05;;
65463;SDS011;52063;45.110;9.870;2022-08-21T08:23:32;2.50;;;1.30;;
65463;SDS011;52063;45.110;9.870;2022-08-21T08:25:57;2.33;;;1.10;;
65463;SDS011;52063;45.110;9.870;2022-08-21T08:28:23;1.58;;;0.80;;
65463;SDS011;52063;45.110;9.870;2022-08-21T08:30:48;1.47;;;1.10;;
65463;SDS011;52063;45.110;9.870;2022-08-21T08:33:15;1.48;;;1.13;;
65463;SDS011;52063;45.110;9.870;2022-08-21T08:35:42;1.40;;;1.05;;
65463;SDS011;52063;45.110;9.870;2022-08-21T08:38:09;5.10;;;0.98;;
65463;SDS011;52063;45.110;9.870;2022-08-21T08:40:37;4.77;;;1.07;;
65463;SDS011;52063;45.110;9.870;2022-08-21T08:43:05;2.27;;;1.20;;
65463;SDS011;52063;45.110;9.870;2022-08-21T08:45:31;3.92;;;1.10;;
65463;SDS011;52063;45.110;9.870;2022-08-21T08:47:58;1.70;;;1.33;;
65463;SDS011;52063;45.110;9.870;2022-08-21T08:52:57;2.05;;;1.38;;
65463;SDS011;52063;45.110;9.870;2022-08-21T08:55:26;2.27;;;1.77;;
65463;SDS011;52063;45.110;9.870;2022-08-21T08:57:53;1.73;;;1.23;;
65463;SDS011;52063;45.110;9.870;2022-08-21T09:00:20;1.60;;;1.48;;
65463;SDS011;52063;45.110;9.870;2022-08-21T09:02:46;2.65;;;1.30;;
65463;SDS011;52063;45.110;9.870;2022-08-21T09:05:22;1.92;;;1.25;;
65463;SDS011;52063;45.110;9.870;2022-08-21T09:10:20;1.90;;;1.20;;
65463;SDS011;52063;45.110;9.870;2022-08-21T09:13:01;5.43;;;1.40;;
65463;SDS011;52063;45.110;9.870;2022-08-21T09:15:36;4.10;;;1.60;;
65463;SDS011;52063;45.110;9.870;2022-08-21T09:25:31;2.13;;;1.53;;
65463;SDS011;52063;45.110;9.870;2022-08-21T09:27:57;4.20;;;1.90;;
65463;SDS011;52063;45.110;9.870;2022-08-21T09:30:27;3.22;;;1.67;;
65463;SDS011;52063;45.110;9.870;2022-08-21T09:32:53;4.30;;;1.50;;
65463;SDS011;52063;45.110;9.870;2022-08-21T09:35:20;2.30;;;1.58;;
65463;SDS011;52063;45.110;9.870;2022-08-21T09:37:57;3.13;;;1.43;;
65463;SDS011;52063;45.110;9.870;2022-08-21T09:40:38;3.55;;;1.60;;
65463;SDS011;52063;45.110;9.870;2022-08-21T09:45:36;1.63;;;1.45;;
65463;SDS011;52063;45.110;9.870;2022-08-21T09:48:11;1.50;;;1.40;;
65463;SDS011;52063;45.110;9.870;2022-08-21T09:50:37;2.85;;;1.52;;
65463;SDS011;52063;45.110;9.870;2022-08-21T09:53:03;2.00;;;1.38;;
65463;SDS011;52063;45.110;9.870;2022-08-21T09:55:39;1.60;;;1.42;;
65463;SDS011;52063;45.110;9.870;2022-08-21T09:58:29;3.57;;;1.90;;
65463;SDS011;52063;45.110;9.870;2022-08-21T10:00:58;4.15;;;1.30;;
65463;SDS011;52063;45.110;9.870;2022-08-21T10:03:24;4.68;;;1.23;;
65463;SDS011;52063;45.110;9.870;2022-08-21T10:05:51;2.13;;;1.60;;
65463;SDS011;52063;45.110;9.870;2022-08-21T10:08:18;5.70;;;1.20;;
65463;SDS011;52063;45.110;9.870;2022-08-21T10:10:44;3.72;;;1.38;;
65463;SDS011;52063;45.110;9.870;2022-08-21T10:13:13;1.50;;;1.10;;
65463;SDS011;52063;45.110;9.870;2022-08-21T10:18:12;2.75;;;1.23;;
65463;SDS011;52063;45.110;9.870;2022-08-21T10:20:49;3.40;;;1.27;;
65463;SDS011;52063;45.110;9.870;2022-08-21T10:26:05;1.83;;;1.02;;
65463;SDS011;52063;45.110;9.870;2022-08-21T10:31:12;1.57;;;0.83;;
65463;SDS011;52063;45.110;9.870;2022-08-21T10:46:47;2.63;;;1.00;;
65463;SDS011;52063;45.110;9.870;2022-08-21T10:49:17;1.58;;;1.00;;
65463;SDS011;52063;45.110;9.870;2022-08-21T10:52:20;1.60;;;0.80;;
65463;SDS011;52063;45.110;9.870;2022-08-21T10:54:50;1.15;;;0.80;;
65463;SDS011;52063;45.110;9.870;2022-08-21T11:00:08;1.97;;;0.80;;
65463;SDS011;52063;45.110;9.870;2022-08-21T11:02:42;2.10;;;0.80;;
65463;SDS011;52063;45.110;9.870;2022-08-21T11:07:36;1.90;;;1.10;;
65463;SDS011;52063;45.110;9.870;2022-08-21T11:10:09;1.48;;;0.88;;
65463;SDS011;52063;45.110;9.870;2022-08-21T11:12:40;1.90;;;0.90;;
65463;SDS011;52063;45.110;9.870;2022-08-21T11:15:23;1.90;;;1.07;;
65463;SDS011;52063;45.110;9.870;2022-08-21T11:17:52;1.95;;;1.00;;
65463;SDS011;52063;45.110;9.870;2022-08-21T11:20:23;3.35;;;1.15;;
65463;SDS011;52063;45.110;9.870;2022-08-21T11:22:58;2.00;;;0.73;;
65463;SDS011;52063;45.110;9.870;2022-08-21T11:25:27;1.15;;;0.98;;
65463;SDS011;52063;45.110;9.870;2022-08-21T11:27:58;2.23;;;1.10;;
65463;SDS011;52063;45.110;9.870;2022-08-21T11:30:25;3.75;;;1.10;;
65463;SDS011;52063;45.110;9.870;2022-08-21T11:35:34;1.00;;;0.90;;
65463;SDS011;52063;45.110;9.870;2022-08-21T11:43:20;2.33;;;0.90;;
65463;SDS011;52063;45.110;9.870;2022-08-21T11:45:52;3.83;;;1.10;;
65463;SDS011;52063;45.110;9.870;2022-08-21T11:50:50;2.78;;;1.05;;
65463;SDS011;52063;45.110;9.870;2022-08-21T11:54:02;1.17;;;0.75;;
65463;SDS011;52063;45.110;9.870;2022-08-21T11:56:09;1.00;;;0.90;;
65463;SDS011;52063;45.110;9.870;2022-08-21T11:58:38;1.87;;;0.77;;
65463;SDS011;52063;45.110;9.870;2022-08-21T12:01:09;1.13;;;1.02;;
65463;SDS011;52063;45.110;9.870;2022-08-21T12:03:36;1.15;;;0.90;;
65463;SDS011;52063;45.110;9.870;2022-08-21T12:06:10;2.15;;;0.90;;
65463;SDS011;52063;45.110;9.870;2022-08-21T12:08:37;3.92;;;1.17;;
65463;SDS011;52063;45.110;9.870;2022-08-21T12:11:07;1.10;;;1.00;;
65463;SDS011;52063;45.110;9.870;2022-08-21T12:13:37;1.33;;;0.90;;
65463;SDS011;52063;45.110;9.870;2022-08-21T12:16:07;2.42;;;1.00;;
65463;SDS011;52063;45.110;9.870;2022-08-21T12:18:33;1.88;;;0.93;;
65463;SDS011;52063;45.110;9.870;2022-08-21T12:23:28;1.47;;;0.90;;
65463;SDS011;52063;45.110;9.870;2022-08-21T12:26:10;1.42;;;1.05;;
65463;SDS011;52063;45.110;9.870;2022-08-21T12:28:36;2.28;;;0.77;;
65463;SDS011;52063;45.110;9.870;2022-08-21T12:31:02;2.38;;;0.95;;
65463;SDS011;52063;45.110;9.870;2022-08-21T12:33:35;2.30;;;0.80;;
65463;SDS011;52063;45.110;9.870;2022-08-21T12:36:12;2.45;;;0.80;;
65463;SDS011;52063;45.110;9.870;2022-08-21T12:38:49;1.27;;;0.80;;
65463;SDS011;52063;45.110;9.870;2022-08-21T12:41:17;1.10;;;0.87;;
65463;SDS011;52063;45.110;9.870;2022-08-21T12:43:43;0.70;;;0.60;;
65463;SDS011;52063;45.110;9.870;2022-08-21T12:46:21;1.45;;;0.70;;
65463;SDS011;52063;45.110;9.870;2022-08-21T12:48:48;1.70;;;0.68;;
65463;SDS011;52063;45.110;9.870;2022-08-21T12:51:17;4.00;;;0.70;;
65463;SDS011;52063;45.110;9.870;2022-08-21T12:53:50;1.67;;;0.63;;
65463;SDS011;52063;45.110;9.870;2022-08-21T12:56:19;1.58;;;0.90;;
65463;SDS011;52063;45.110;9.870;2022-08-21T12:59:00;1.10;;;0.80;;
65463;SDS011;52063;45.110;9.870;2022-08-21T13:01:32;1.98;;;0.70;;
65463;SDS011;52063;45.110;9.870;2022-08-21T13:04:03;1.00;;;0.60;;
65463;SDS011;52063;45.110;9.870;2022-08-21T13:06:29;1.10;;;0.73;;
65463;SDS011;52063;45.110;9.870;2022-08-21T13:08:57;2.63;;;0.90;;
65463;SDS011;52063;45.110;9.870;2022-08-21T13:11:24;5.03;;;0.98;;
65463;SDS011;52063;45.110;9.870;2022-08-21T13:13:50;3.30;;;0.80;;
65463;SDS011;52063;45.110;9.870;2022-08-21T13:16:20;1.35;;;0.73;;
65463;SDS011;52063;45.110;9.870;2022-08-21T13:21:26;0.82;;;0.63;;
65463;SDS011;52063;45.110;9.870;2022-08-21T13:23:52;3.85;;;0.77;;
65463;SDS011;52063;45.110;9.870;2022-08-21T13:26:21;3.30;;;0.80;;
65463;SDS011;52063;45.110;9.870;2022-08-21T13:28:47;0.80;;;0.80;;
65463;SDS011;52063;45.110;9.870;2022-08-21T13:31:15;4.22;;;0.70;;
65463;SDS011;52063;45.110;9.870;2022-08-21T13:33:41;1.73;;;0.73;;
65463;SDS011;52063;45.110;9.870;2022-08-21T13:36:11;0.80;;;0.80;;
65463;SDS011;52063;45.110;9.870;2022-08-21T13:38:37;0.80;;;0.80;;
65463;SDS011;52063;45.110;9.870;2022-08-21T13:43:34;1.10;;;0.80;;
65463;SDS011;52063;45.110;9.870;2022-08-21T13:46:00;2.90;;;1.00;;
65463;SDS011;52063;45.110;9.870;2022-08-21T13:48:28;0.93;;;0.60;;
65463;SDS011;52063;45.110;9.870;2022-08-21T13:50:54;2.45;;;0.85;;
65463;SDS011;52063;45.110;9.870;2022-08-21T13:53:36;0.90;;;0.80;;
65463;SDS011;52063;45.110;9.870;2022-08-21T13:56:20;1.00;;;0.90;;
65463;SDS011;52063;45.110;9.870;2022-08-21T13:58:46;1.85;;;0.77;;
65463;SDS011;52063;45.110;9.870;2022-08-21T14:01:50;1.83;;;0.87;;
65463;SDS011;52063;45.110;9.870;2022-08-21T14:06:42;1.38;;;0.80;;
65463;SDS011;52063;45.110;9.870;2022-08-21T14:09:41;2.93;;;0.70;;
65463;SDS011;52063;45.110;9.870;2022-08-21T14:12:01;2.05;;;0.80;;
65463;SDS011;52063;45.110;9.870;2022-08-21T14:14:30;2.03;;;0.80;;
65463;SDS011;52063;45.110;9.870;2022-08-21T14:17:00;2.08;;;0.80;;
65463;SDS011;52063;45.110;9.870;2022-08-21T14:19:34;2.00;;;0.90;;
65463;SDS011;52063;45.110;9.870;2022-08-21T14:22:12;7.10;;;0.90;;
65463;SDS011;52063;45.110;9.870;2022-08-21T14:24:46;1.20;;;1.10;;
65463;SDS011;52063;45.110;9.870;2022-08-21T14:27:11;1.70;;;1.07;;
65463;SDS011;52063;45.110;9.870;2022-08-21T14:29:40;1.80;;;0.83;;
65463;SDS011;52063;45.110;9.870;2022-08-21T14:32:10;1.90;;;0.60;;
65463;SDS011;52063;45.110;9.870;2022-08-21T14:34:37;4.72;;;1.02;;
65463;SDS011;52063;45.110;9.870;2022-08-21T14:37:03;3.93;;;1.10;;
65463;SDS011;52063;45.110;9.870;2022-08-21T14:39:28;3.10;;;1.17;;
65463;SDS011;52063;45.110;9.870;2022-08-21T14:41:53;1.30;;;0.90;;
65463;SDS011;52063;45.110;9.870;2022-08-21T14:44:20;1.73;;;0.80;;
65463;SDS011;52063;45.110;9.870;2022-08-21T14:46:45;2.23;;;0.80;;
65463;SDS011;52063;45.110;9.870;2022-08-21T14:49:11;3.10;;;0.87;;
65463;SDS011;52063;45.110;9.870;2022-08-21T14:51:36;1.37;;;0.70;;
65463;SDS011;52063;45.110;9.870;2022-08-21T14:54:04;0.90;;;0.80;;
65463;SDS011;52063;45.110;9.870;2022-08-21T14:56:29;1.95;;;0.68;;
65463;SDS011;52063;45.110;9.870;2022-08-21T14:58:54;1.60;;;0.80;;
65463;SDS011;52063;45.110;9.870;2022-08-21T15:01:23;0.82;;;0.80;;
65463;SDS011;52063;45.110;9.870;2022-08-21T15:03:48;0.93;;;0.70;;
65463;SDS011;52063;45.110;9.870;2022-08-21T15:06:14;1.73;;;0.80;;
65463;SDS011;52063;45.110;9.870;2022-08-21T15:08:40;1.65;;;0.63;;
65463;SDS011;52063;45.110;9.870;2022-08-21T15:11:06;2.93;;;0.57;;
65463;SDS011;52063;45.110;9.870;2022-08-21T15:13:33;1.15;;;0.63;;
65463;SDS011;52063;45.110;9.870;2022-08-21T15:15:59;1.90;;;0.60;;
65463;SDS011;52063;45.110;9.870;2022-08-21T15:18:25;2.47;;;0.70;;
65463;SDS011;52063;45.110;9.870;2022-08-21T15:20:51;2.20;;;0.70;;
65463;SDS011;52063;45.110;9.870;2022-08-21T15:23:16;1.00;;;0.60;;
65463;SDS011;52063;45.110;9.870;2022-08-21T15:25:42;0.83;;;0.60;;
65463;SDS011;52063;45.110;9.870;2022-08-21T15:28:09;2.13;;;0.93;;
65463;SDS011;52063;45.110;9.870;2022-08-21T15:30:34;0.90;;;0.75;;
65463;SDS011;52063;45.110;9.870;2022-08-21T15:33:00;0.88;;;0.63;;
65463;SDS011;52063;45.110;9.870;2022-08-21T15:35:25;1.60;;;0.90;;
65463;SDS011;52063;45.110;9.870;2022-08-21T15:37:51;3.53;;;0.80;;
65463;SDS011;52063;45.110;9.870;2022-08-21T15:40:16;0.93;;;0.80;;
65463;SDS011;52063;45.110;9.870;2022-08-21T15:42:42;1.00;;;0.90;;
65463;SDS011;52063;45.110;9.870;2022-08-21T15:45:08;0.85;;;0.60;;
65463;SDS011;52063;45.110;9.870;2022-08-21T15:47:34;2.72;;;0.80;;
65463;SDS011;52063;45.110;9.870;2022-08-21T15:50:01;2.47;;;0.93;;
65463;SDS011;52063;45.110;9.870;2022-08-21T15:52:26;0.90;;;0.70;;
65463;SDS011;52063;45.110;9.870;2022-08-21T15:54:51;2.00;;;0.67;;